Time;durP1;ratioP1;P1;durP2;ratioP2;P2;SDS_P1;SDS_P2;PMS_P1;PMS_P2;Temp;Humidity;BMP_temperature;BMP_pressure;BME280_temperature;BME280_humidity;BME280_pressure;Samples;Min_cycle;Max_cycle;Signal;HPM_P1;HPM_P2
2022/08/29 00:01:55;;;;;;;9.88;2.60;;;;;;;16.17;57.51;102321.31;5172524;28;20052;-37
2022/08/29 00:04:28;;;;;;;4.57;2.00;;;;;;;16.18;57.54;102322.97;5172216;28;20037;-38
2022/08/29 00:07:01;;;;;;;7.03;2.30;;;;;;;16.09;57.48;102314.03;5183725;28;20048;-42
2022/08/29 00:09:33;;;;;;;4.20;2.20;;;;;;;16.13;57.39;102307.44;5177369;28;20115;-39
2022/08/29 00:12:08;;;;;;;6.13;3.17;;;;;;;16.17;57.36;102315.13;5171412;28;20560;-42
2022/08/29 00:14:40;;;;;;;5.63;3.30;;;;;;;16.13;57.21;102307.44;5184153;28;20576;-43
2022/08/29 00:17:13;;;;;;;9.20;2.45;;;;;;;16.22;57.19;102311.00;5181431;28;20040;-43
2022/08/29 00:19:45;;;;;;;5.90;2.30;;;;;;;16.24;57.25;102305.53;5199718;28;20128;-41
2022/08/29 00:22:17;;;;;;;3.97;2.63;;;;;;;16.19;57.12;102308.63;5185337;28;20400;-39
2022/08/29 00:24:50;;;;;;;5.72;2.53;;;;;;;16.19;57.20;102310.47;5192425;28;20538;-42
2022/08/29 00:27:24;;;;;;;10.90;3.13;;;;;;;16.13;57.08;102302.13;5189779;28;20060;-39
2022/08/29 00:29:56;;;;;;;5.88;2.22;;;;;;;16.12;57.08;102299.59;5189807;28;20553;-42
2022/08/29 00:32:33;;;;;;;10.52;2.65;;;;;;;16.16;56.96;102302.78;5183273;28;20094;-41
2022/08/29 00:35:10;;;;;;;4.75;2.47;;;;;;;16.13;56.97;102299.44;5181180;28;20076;-40
2022/08/29 00:37:43;;;;;;;6.03;2.78;;;;;;;16.04;56.87;102304.81;5188996;28;20562;-40
2022/08/29 00:40:19;;;;;;;;;;;;;;;16.11;56.93;102316.56;5178069;28;20138;-36
2022/08/29 00:42:53;;;;;;;9.18;3.00;;;;;;;16.09;56.78;102315.88;5196821;28;21337;-42
2022/08/29 00:45:26;;;;;;;5.32;2.90;;;;;;;16.07;56.97;102321.38;5181474;28;21084;-38
2022/08/29 00:48:05;;;;;;;4.45;2.58;;;;;;;16.03;56.85;102314.63;5185555;28;20053;-38
2022/08/29 00:50:44;;;;;;;7.57;2.97;;;;;;;16.01;56.86;102305.97;5175628;28;20110;-42
2022/08/29 00:53:20;;;;;;;9.40;3.47;;;;;;;16.08;56.65;102320.38;5189886;28;20470;-41
2022/08/29 00:55:52;;;;;;;6.20;2.75;;;;;;;16.01;56.74;102316.63;5174595;28;20111;-42
2022/08/29 00:58:31;;;;;;;7.43;3.13;;;;;;;16.14;56.44;102327.75;5189715;28;20446;-40
2022/08/29 01:01:04;;;;;;;5.38;2.90;;;;;;;16.09;56.42;102319.38;5174146;27;20053;-43
2022/08/29 01:03:38;;;;;;;10.50;3.13;;;;;;;16.23;56.35;102336.69;5180787;28;20641;-40
2022/08/29 01:06:12;;;;;;;4.93;2.60;;;;;;;16.26;56.32;102340.88;5180808;28;20125;-41
2022/08/29 01:08:45;;;;;;;4.68;2.88;;;;;;;16.22;56.16;102334.16;5180952;28;20048;-43
2022/08/29 01:14:10;;;;;;;6.82;2.58;;;;;;;16.19;56.08;102329.13;5189378;28;19924;-33
2022/08/29 01:16:43;;;;;;;7.82;2.50;;;;;;;16.15;56.19;102336.59;5184308;28;20512;-41
2022/08/29 01:19:27;;;;;;;5.20;2.38;;;;;;;16.04;56.16;102319.00;5192372;28;20312;-41
2022/08/29 01:22:08;;;;;;;4.97;3.55;;;;;;;16.08;56.30;102328.38;5178841;28;20436;-41
2022/08/29 01:24:49;;;;;;;6.38;2.88;;;;;;;15.95;56.56;102327.03;5160103;28;20046;-41
2022/08/29 01:27:27;;;;;;;7.63;2.83;;;;;;;15.96;56.36;102334.88;5170123;27;21401;-40
2022/08/29 01:30:00;;;;;;;6.32;2.33;;;;;;;15.93;56.38;102327.19;5178782;28;20277;-39
2022/08/29 01:32:33;;;;;;;3.75;2.42;;;;;;;15.97;56.29;102331.22;5169356;28;20057;-37
2022/08/29 01:35:07;;;;;;;4.13;2.33;;;;;;;16.00;56.42;102324.75;5175805;28;20075;-39
2022/08/29 01:37:43;;;;;;;4.05;2.60;;;;;;;16.01;56.45;102332.63;5181220;28;20340;-40
2022/08/29 01:40:17;;;;;;;15.60;3.15;;;;;;;15.99;56.34;102323.94;5191247;28;20042;-38
2022/08/29 01:42:49;;;;;;;5.38;2.58;;;;;;;16.06;56.42;102325.00;5173135;28;20121;-45
2022/08/29 01:45:22;;;;;;;5.60;2.95;;;;;;;16.04;56.30;102326.13;5186893;28;21875;-36
2022/08/29 01:47:55;;;;;;;7.82;2.88;;;;;;;16.09;56.33;102324.69;5186646;28;20429;-42
2022/08/29 01:50:28;;;;;;;5.95;2.72;;;;;;;16.16;56.03;102330.25;5187422;28;20055;-44
2022/08/29 01:53:01;;;;;;;4.88;2.70;;;;;;;16.20;55.97;102326.34;5171996;27;20068;-42
2022/08/29 01:55:35;;;;;;;4.55;2.65;;;;;;;16.28;56.07;102333.56;5194686;28;20528;-36
2022/08/29 01:58:07;;;;;;;6.15;2.88;;;;;;;16.29;55.79;102329.91;5188005;28;20106;-41
2022/08/29 02:00:40;;;;;;;10.32;3.00;;;;;;;16.30;55.79;102326.25;5183075;28;20048;-43
2022/08/29 02:03:13;;;;;;;6.78;2.90;;;;;;;16.39;55.64;102329.84;5174607;28;20116;-40
2022/08/29 02:05:47;;;;;;;3.70;2.53;;;;;;;16.44;55.68;102330.22;5183610;28;20072;-41
2022/08/29 02:08:20;;;;;;;5.13;3.35;;;;;;;16.47;55.60;102321.91;5167014;28;20411;-40
2022/08/29 02:10:54;;;;;;;6.97;3.28;;;;;;;16.52;55.56;102331.13;5175343;28;21933;-39
2022/08/29 02:13:27;;;;;;;8.52;3.35;;;;;;;16.54;55.37;102329.16;5189219;28;20048;-40
2022/08/29 02:15:59;;;;;;;5.35;3.00;;;;;;;16.57;55.36;102320.88;5187802;28;20385;-42
2022/08/29 02:18:32;;;;;;;4.55;2.53;;;;;;;16.52;55.34;102309.81;5179971;28;20049;-41
2022/08/29 02:21:06;;;;;;;11.48;3.20;;;;;;;16.62;55.25;102320.38;5189915;28;20045;-40
2022/08/29 02:23:40;;;;;;;8.18;3.30;;;;;;;16.54;55.09;102305.16;5186251;28;20373;-38
2022/08/29 02:26:14;;;;;;;4.15;2.95;;;;;;;16.58;55.16;102314.53;5196672;28;20492;-40
2022/08/29 02:28:49;;;;;;;7.13;2.83;;;;;;;16.63;54.94;102322.09;5172052;28;20339;-40
2022/08/29 02:31:23;;;;;;;8.63;2.95;;;;;;;16.63;55.11;102318.56;5185340;28;20501;-43
2022/08/29 02:33:55;;;;;;;7.78;2.88;;;;;;;16.67;55.04;102322.63;5183693;28;20521;-41
2022/08/29 02:36:28;;;;;;;4.93;2.70;;;;;;;16.63;54.92;102316.75;5186077;28;20509;-40
2022/08/29 02:39:01;;;;;;;5.60;3.03;;;;;;;16.72;54.92;102314.97;5183423;28;20226;-39
2022/08/29 02:41:35;;;;;;;5.90;2.50;;;;;;;16.69;54.92;102312.59;5174949;28;20461;-35
2022/08/29 02:44:07;;;;;;;4.75;2.75;;;;;;;16.76;54.80;102321.72;5181723;28;20397;-36
2022/08/29 02:46:40;;;;;;;5.30;3.70;;;;;;;16.74;54.78;102329.00;5177989;28;20390;-39
2022/08/29 02:49:12;;;;;;;27.25;3.80;;;;;;;16.73;54.84;102324.66;5186146;28;20519;-41
2022/08/29 02:51:45;;;;;;;8.02;3.97;;;;;;;16.66;54.59;102310.25;5194672;28;20503;-43
2022/08/29 02:54:17;;;;;;;6.85;3.13;;;;;;;16.71;54.84;102321.31;5199784;28;20040;-40
2022/08/29 02:56:51;;;;;;;9.60;3.22;;;;;;;16.70;54.82;102317.81;5178505;27;20608;-42
2022/08/29 02:59:24;;;;;;;6.80;2.78;;;;;;;16.69;54.83;102331.28;5176471;28;20180;-35
2022/08/29 03:01:56;;;;;;;8.48;3.92;;;;;;;16.57;54.98;102312.84;5173011;28;20362;-40
2022/08/29 03:04:29;;;;;;;6.80;3.88;;;;;;;16.60;54.84;102317.88;5185478;28;20381;-46
2022/08/29 03:07:04;;;;;;;10.32;3.38;;;;;;;16.59;54.88;102321.53;5179913;28;20056;-40
2022/08/29 03:09:36;;;;;;;10.48;3.45;;;;;;;16.62;54.94;102323.06;5175498;28;20048;-40
2022/08/29 03:12:10;;;;;;;15.02;4.00;;;;;;;16.60;54.90;102317.88;5185822;28;20549;-40
2022/08/29 03:14:43;;;;;;;10.15;4.13;;;;;;;16.53;54.85;102311.47;5176861;27;20138;-41
2022/08/29 03:17:15;;;;;;;7.35;3.10;;;;;;;16.62;54.92;102322.22;5176000;28;20485;-41
2022/08/29 03:20:16;;;;;;;9.77;3.28;;;;;;;16.65;54.78;102324.59;5181821;28;20441;-41
2022/08/29 03:22:50;;;;;;;6.43;3.22;;;;;;;16.68;54.71;102318.94;5177735;28;20334;-43
2022/08/29 03:25:24;;;;;;;7.35;3.85;;;;;;;16.75;54.81;102314.66;5183467;28;20344;-42
2022/08/29 03:27:59;;;;;;;8.13;4.28;;;;;;;16.77;54.75;102318.06;5164670;28;20384;-41
2022/08/29 03:30:31;;;;;;;17.10;3.35;;;;;;;16.69;54.65;102299.25;5178479;28;20130;-38
2022/08/29 03:33:05;;;;;;;9.95;3.55;;;;;;;16.75;54.57;102293.31;5176096;28;20386;-43
2022/08/29 03:35:37;;;;;;;;;;;;;;;16.88;54.60;102309.81;5196070;28;20587;-41
2022/08/29 03:38:09;;;;;;;14.25;3.53;;;;;;;16.90;54.38;102305.13;5171110;28;20571;-39
2022/08/29 03:40:42;;;;;;;8.43;3.92;;;;;;;16.92;54.32;102305.81;5172325;28;20076;-38
2022/08/29 03:43:20;;;;;;;5.88;3.42;;;;;;;16.92;54.35;102305.00;5181054;28;20175;-41
2022/08/29 03:45:53;;;;;;;7.43;3.83;;;;;;;16.97;54.25;102303.53;5185802;28;20056;-43
2022/08/29 03:48:25;;;;;;;;;;;;;;;17.00;54.42;102297.03;5179561;28;20455;-39
2022/08/29 03:50:58;;;;;;;12.63;3.42;;;;;;;16.96;54.25;102299.19;5177645;28;20285;-41
2022/08/29 03:53:33;;;;;;;7.38;4.05;;;;;;;16.94;54.28;102279.84;5196210;28;20508;-42
2022/08/29 03:56:06;;;;;;;10.18;3.85;;;;;;;16.95;54.08;102281.50;5178188;28;20068;-39
2022/08/29 03:58:40;;;;;;;5.75;3.28;;;;;;;17.08;54.25;102294.44;5194637;28;20420;-42
2022/08/29 04:01:15;;;;;;;9.93;3.92;;;;;;;17.00;54.08;102287.22;5179223;28;20122;-40
2022/08/29 04:03:48;;;;;;;9.13;3.53;;;;;;;16.99;54.09;102282.84;5178309;28;20335;-42
2022/08/29 04:06:21;;;;;;;8.25;4.43;;;;;;;16.99;54.11;102280.19;5169942;28;20409;-43
2022/08/29 04:08:53;;;;;;;;;;;;;;;17.10;54.26;102296.94;5187549;28;20411;-41
2022/08/29 04:11:27;;;;;;;9.80;4.18;;;;;;;17.10;54.03;102294.28;5181431;28;19963;-47
2022/08/29 04:14:01;;;;;;;9.77;3.60;;;;;;;17.06;53.89;102285.72;5189853;28;20052;-42
2022/08/29 04:16:34;;;;;;;6.00;3.53;;;;;;;17.12;53.97;102290.44;5176642;28;20052;-39
2022/08/29 04:19:07;;;;;;;10.27;3.80;;;;;;;17.17;53.75;102298.00;5180082;28;20122;-44
2022/08/29 04:21:39;;;;;;;7.53;3.78;;;;;;;17.19;53.82;102301.34;5176838;28;20048;-42
2022/08/29 04:24:12;;;;;;;9.00;3.60;;;;;;;17.11;53.94;102277.25;5175258;28;20079;-45
2022/08/29 04:26:45;;;;;;;10.32;4.35;;;;;;;17.14;53.85;102279.63;5187967;28;20049;-39
2022/08/29 04:29:19;;;;;;;6.00;3.92;;;;;;;17.22;53.70;102296.53;5181325;28;20126;-40
2022/08/29 04:31:52;;;;;;;13.50;4.43;;;;;;;17.15;53.95;102281.28;5183809;28;20044;-37
2022/08/29 04:34:24;;;;;;;7.80;3.58;;;;;;;17.23;53.79;102292.00;5174185;28;20578;-37
2022/08/29 04:36:58;;;;;;;10.80;3.70;;;;;;;17.14;53.77;102287.63;5202253;28;20044;-43
2022/08/29 04:39:31;;;;;;;11.00;3.78;;;;;;;17.27;53.77;102298.72;5181783;28;20045;-44
2022/08/29 04:42:04;;;;;;;8.40;4.35;;;;;;;17.21;53.75;102299.34;5182384;28;20091;-40
2022/08/29 04:44:38;;;;;;;8.43;3.53;;;;;;;17.21;53.75;102294.00;5175359;28;20044;-45
2022/08/29 04:47:10;;;;;;;12.38;3.80;;;;;;;17.20;53.81;102297.66;5172928;28;20045;-40
2022/08/29 04:49:44;;;;;;;9.43;3.95;;;;;;;17.13;53.86;102301.97;5179241;28;20572;-37
2022/08/29 04:52:16;;;;;;;15.98;4.13;;;;;;;17.22;53.66;102317.06;5184232;28;20072;-39
2022/08/29 04:54:49;;;;;;;8.45;4.15;;;;;;;17.24;53.72;102309.69;5189108;28;20102;-42
2022/08/29 04:57:23;;;;;;;;;;;;;;;17.27;53.79;102320.06;5183433;28;20365;-41
2022/08/29 04:59:58;;;;;;;;;;;;;;;17.27;53.85;102312.06;5168961;28;19943;-41
2022/08/29 05:02:31;;;;;;;6.68;3.33;;;;;;;17.21;53.67;102310.84;5180790;28;20034;-42
2022/08/29 05:05:04;;;;;;;;;;;;;;;17.31;53.64;102321.41;5191108;28;20037;-39
2022/08/29 05:07:37;;;;;;;12.37;4.03;;;;;;;17.30;53.52;102317.09;5183323;28;20376;-43
2022/08/29 05:10:17;;;;;;;8.07;4.22;;;;;;;17.33;53.36;102319.44;5195190;28;20305;-38
2022/08/29 05:16:37;;;;;;;15.48;3.95;;;;;;;17.28;53.05;102305.72;5202555;28;20152;-39
2022/08/29 05:19:10;;;;;;;11.23;4.53;;;;;;;17.35;53.27;102322.78;5182682;28;20134;-38
2022/08/29 05:21:43;;;;;;;10.55;5.10;;;;;;;17.38;53.31;102333.16;5187093;28;20573;-36
2022/08/29 05:24:15;;;;;;;9.30;4.07;;;;;;;17.33;53.49;102316.75;5178550;28;20413;-42
2022/08/29 05:26:48;;;;;;;6.57;3.88;;;;;;;17.39;53.28;102326.81;5182577;28;20045;-41
2022/08/29 05:29:20;;;;;;;7.07;3.70;;;;;;;17.42;53.35;102334.50;5177582;28;20705;-37
2022/08/29 05:31:54;;;;;;;8.85;4.20;;;;;;;17.40;53.48;102325.81;5201130;28;20215;-44
2022/08/29 05:34:27;;;;;;;8.07;4.93;;;;;;;17.44;53.43;102335.19;5184015;28;20082;-44
2022/08/29 05:36:59;;;;;;;10.25;4.53;;;;;;;17.47;53.37;102340.22;5186985;28;20119;-40
2022/08/29 05:39:33;;;;;;;17.75;5.22;;;;;;;17.47;53.40;102342.91;5174045;28;20142;-34
2022/08/29 05:42:07;;;;;;;8.82;4.70;;;;;;;17.44;53.46;102332.53;5169688;28;20448;-41
2022/08/29 05:44:40;;;;;;;6.38;4.20;;;;;;;17.44;53.35;102327.19;5190576;28;20508;-38
2022/08/29 05:47:36;;;;;;;10.07;4.68;;;;;;;17.56;53.33;102340.25;5182933;28;20130;-41
2022/08/29 05:50:10;;;;;;;9.07;4.28;;;;;;;17.60;53.24;102342.47;5176085;28;20476;-44
2022/08/29 05:57:03;;;;;;;20.63;5.53;;;;;;;17.74;53.24;102338.34;5215254;28;20182;-39
2022/08/29 05:59:37;;;;;;;13.13;4.28;;;;;;;17.79;53.05;102340.56;5193665;28;20049;-40
2022/08/29 06:02:11;;;;;;;8.07;4.28;;;;;;;17.83;53.13;102347.25;5199978;28;20138;-39
2022/08/29 06:04:45;;;;;;;9.15;4.55;;;;;;;17.79;52.91;102330.72;5199092;28;20078;-39
2022/08/29 06:07:18;;;;;;;11.30;4.80;;;;;;;17.95;53.04;102354.81;5200221;28;20047;-39
2022/08/29 06:09:51;;;;;;;10.40;4.70;;;;;;;17.92;52.89;102333.75;5205170;28;20487;-43
2022/08/29 06:12:24;;;;;;;;;;;;;;;18.08;52.89;102350.84;5216623;28;20135;-43
2022/08/29 06:14:56;;;;;;;10.52;4.28;;;;;;;18.12;52.82;102346.88;5202978;28;20229;-38
2022/08/29 06:17:29;;;;;;;10.27;4.95;;;;;;;18.23;52.70;102354.59;5210666;28;20043;-48
2022/08/29 06:20:08;;;;;;;9.65;4.00;;;;;;;18.28;52.59;102344.25;5203597;28;20397;-39
2022/08/29 06:22:41;;;;;;;10.85;4.43;;;;;;;18.36;52.44;102357.63;5202462;28;20072;-44
2022/08/29 06:25:14;;;;;;;13.68;4.25;;;;;;;18.46;52.46;102354.81;5204179;28;20492;-39
2022/08/29 06:27:46;;;;;;;10.27;4.90;;;;;;;18.53;52.33;102353.16;5211854;28;20122;-42
2022/08/29 06:30:19;;;;;;;13.20;4.28;;;;;;;18.68;52.26;102358.69;5202175;28;20059;-41
2022/08/29 06:32:51;;;;;;;8.18;3.72;;;;;;;18.69;52.13;102338.94;5204208;28;20511;-42
2022/08/29 06:35:25;;;;;;;12.50;4.90;;;;;;;18.81;51.99;102348.34;5193307;28;20191;-41
2022/08/29 06:37:58;;;;;;;10.68;3.97;;;;;;;18.95;51.85;102352.16;5200000;28;20067;-41
2022/08/29 06:40:30;;;;;;;7.82;3.90;;;;;;;19.01;51.41;102342.63;5203573;28;20091;-46
2022/08/29 06:43:03;;;;;;;9.88;4.05;;;;;;;19.17;51.16;102353.34;5202418;28;20062;-32
2022/08/29 06:45:41;;;;;;;15.55;4.63;;;;;;;19.20;51.05;102353.00;5203112;28;20063;-41
2022/08/29 06:48:14;;;;;;;11.60;4.22;;;;;;;19.19;50.92;102351.31;5205573;28;20048;-40
2022/08/29 06:50:48;;;;;;;10.63;4.05;;;;;;;19.31;50.92;102359.84;5201042;28;20048;-39
2022/08/29 06:53:22;;;;;;;9.25;3.42;;;;;;;19.31;50.69;102360.66;5195290;28;20435;-41
2022/08/29 06:55:55;;;;;;;10.70;3.72;;;;;;;19.35;50.64;102367.38;5202922;28;20111;-40
2022/08/29 06:58:27;;;;;;;5.53;3.28;;;;;;;19.41;50.43;102359.66;5206330;28;20033;-41
2022/08/29 07:01:04;;;;;;;8.68;3.53;;;;;;;19.57;50.17;102360.47;5191555;28;20095;-42
2022/08/29 07:03:37;;;;;;;10.75;4.13;;;;;;;19.74;49.85;102369.31;5193464;28;20047;-43
2022/08/29 07:06:12;;;;;;;10.18;3.63;;;;;;;19.85;49.71;102367.25;5207917;28;20373;-47
2022/08/29 07:08:45;;;;;;;8.68;3.40;;;;;;;19.97;49.48;102372.03;5205752;28;20048;-41
2022/08/29 07:11:18;;;;;;;10.38;3.40;;;;;;;20.09;49.42;102369.81;5206689;28;20430;-44
2022/08/29 07:13:51;;;;;;;9.77;2.97;;;;;;;20.23;49.23;102366.41;5203398;28;20545;-40
2022/08/29 07:16:23;;;;;;;14.25;3.63;;;;;;;20.38;48.95;102368.34;5195023;28;20063;-43
2022/08/29 07:18:56;;;;;;;6.63;3.28;;;;;;;20.45;48.78;102363.91;5194220;28;20455;-41
2022/08/29 07:21:30;;;;;;;;;;;;;;;20.56;48.81;102368.88;5183963;28;20487;-43
2022/08/29 07:24:04;;;;;;;13.57;3.97;;;;;;;20.75;48.75;102358.69;5197686;28;19939;-32
2022/08/29 07:26:42;;;;;;;7.20;3.30;;;;;;;20.94;48.33;102358.22;5199192;28;20056;-43
2022/08/29 07:29:18;;;;;;;7.95;3.42;;;;;;;20.97;48.29;102347.09;5199971;28;20426;-39
2022/08/29 07:31:50;;;;;;;5.68;2.97;;;;;;;21.04;48.05;102355.25;5203250;28;20122;-42
2022/08/29 07:34:23;;;;;;;11.48;2.45;;;;;;;21.04;48.23;102358.78;5200293;28;21399;-43
2022/08/29 07:36:57;;;;;;;27.20;3.85;;;;;;;21.04;48.29;102364.16;5204899;28;20059;-44
2022/08/29 07:39:30;;;;;;;7.43;3.10;;;;;;;20.86;48.27;102350.22;5197071;28;20435;-39
2022/08/29 07:42:03;;;;;;;12.02;3.42;;;;;;;20.70;48.63;102362.75;5196909;28;20071;-40
2022/08/29 07:44:36;;;;;;;6.25;2.60;;;;;;;20.63;48.88;102366.34;5196141;28;20396;-41
2022/08/29 07:47:09;;;;;;;11.57;3.60;;;;;;;20.58;48.82;102363.34;5197544;28;20064;-39
2022/08/29 07:49:41;;;;;;;4.82;2.42;;;;;;;20.44;49.11;102356.88;5197661;28;20071;-40
2022/08/29 07:52:15;;;;;;;6.28;2.90;;;;;;;20.23;49.51;102366.41;5201527;28;20400;-42
2022/08/29 07:54:47;;;;;;;6.80;2.85;;;;;;;20.07;49.89;102382.59;5199035;28;20338;-42
2022/08/29 07:57:20;;;;;;;13.88;3.58;;;;;;;19.75;50.31;102368.28;5196929;28;20044;-42
2022/08/29 07:59:54;;;;;;;9.75;3.50;;;;;;;19.67;50.63;102384.41;5198814;28;20071;-38
2022/08/29 08:02:26;;;;;;;9.07;3.50;;;;;;;19.46;50.94;102373.38;5198119;28;20044;-41
2022/08/29 08:04:59;;;;;;;9.25;4.00;;;;;;;19.41;51.37;102386.44;5198584;28;20063;-42
2022/08/29 08:07:33;;;;;;;11.57;3.53;;;;;;;19.35;51.57;102372.75;5197815;28;20423;-40
2022/08/29 08:10:07;;;;;;;12.15;3.95;;;;;;;19.27;51.71;102369.22;5193598;28;20078;-39
2022/08/29 08:12:40;;;;;;;10.55;3.58;;;;;;;19.25;51.50;102366.72;5200016;28;20447;-41
2022/08/29 08:15:13;;;;;;;10.50;3.30;;;;;;;19.47;51.06;102381.22;5197268;28;20080;-44
2022/08/29 08:17:45;;;;;;;7.90;2.83;;;;;;;19.57;50.89;102373.00;5196127;28;20076;-39
2022/08/29 08:20:18;;;;;;;10.20;3.13;;;;;;;19.76;50.79;102369.97;5199184;28;20489;-39
2022/08/29 08:22:52;;;;;;;12.82;4.03;;;;;;;19.93;50.53;102369.91;5204071;28;20114;-41
2022/08/29 08:25:24;;;;;;;12.30;3.85;;;;;;;20.04;50.18;102362.31;5203618;28;20121;-45
2022/08/29 08:27:57;;;;;;;11.25;3.25;;;;;;;20.14;50.12;102351.34;5203441;28;20095;-42
2022/08/29 08:30:30;;;;;;;16.15;3.55;;;;;;;20.21;49.69;102341.59;5198071;28;20045;-42
2022/08/29 08:33:03;;;;;;;9.85;3.13;;;;;;;20.45;49.66;102363.91;5200056;28;20141;-44
2022/08/29 08:35:38;;;;;;;7.55;2.47;;;;;;;20.49;49.54;102359.84;5194810;28;20439;-41
2022/08/29 08:38:11;;;;;;;9.18;3.13;;;;;;;20.46;49.39;102357.53;5197033;28;20303;-39
2022/08/29 08:41:00;;;;;;;9.18;2.97;;;;;;;20.45;49.74;102369.28;5199751;28;20477;-39
2022/08/29 08:43:48;;;;;;;8.55;2.90;;;;;;;20.43;49.72;102365.94;5202126;28;20050;-39
2022/08/29 08:46:30;;;;;;;13.13;4.15;;;;;;;20.49;49.47;102375.97;5198676;28;20554;-45
2022/08/29 08:49:07;;;;;;;8.50;3.63;;;;;;;20.59;49.67;102376.59;5204533;28;20064;-42
2022/08/29 08:51:46;;;;;;;6.10;2.95;;;;;;;20.68;49.61;102375.50;5203214;28;20439;-44
2022/08/29 08:54:24;;;;;;;11.27;4.30;;;;;;;20.64;49.76;102368.00;5212225;28;20060;-41
2022/08/29 08:57:05;;;;;;;7.82;3.28;;;;;;;20.67;49.79;102363.13;5214826;28;20045;-40
2022/08/29 08:59:42;;;;;;;9.80;2.65;;;;;;;20.73;49.81;102370.44;5214509;28;20047;-40
2022/08/29 09:02:28;;;;;;;11.73;3.13;;;;;;;20.78;49.50;102369.06;5212479;28;20048;-42
2022/08/29 09:05:18;;;;;;;6.43;3.15;;;;;;;20.73;49.99;102383.88;5209994;28;20637;-40
2022/08/29 09:08:02;;;;;;;8.70;3.95;;;;;;;20.68;50.50;102386.25;5206074;27;20407;-40
2022/08/29 09:10:45;;;;;;;9.65;2.95;;;;;;;20.59;50.91;102381.94;5214671;28;20480;-39
2022/08/29 09:13:31;;;;;;;7.32;2.67;;;;;;;20.65;51.03;102378.56;5216530;28;20094;-41
2022/08/29 09:16:09;;;;;;;8.75;2.58;;;;;;;20.78;50.50;102369.06;5220914;28;20117;-31
2022/08/29 09:18:43;;;;;;;5.13;2.35;;;;;;;21.05;50.11;102379.25;5217591;28;20519;-41
2022/08/29 09:21:19;;;;;;;5.68;2.50;;;;;;;21.21;49.88;102380.09;5223837;27;20131;-42
2022/08/29 09:23:56;;;;;;;7.47;2.33;;;;;;;21.29;49.64;102382.72;5208039;28;20546;-42
2022/08/29 09:26:30;;;;;;;4.95;2.35;;;;;;;21.25;49.49;102371.50;5207166;28;20495;-42
2022/08/29 09:29:03;;;;;;;5.05;3.55;;;;;;;21.27;49.46;102379.38;5207345;28;20114;-40
2022/08/29 09:31:36;;;;;;;4.30;2.88;;;;;;;21.10;49.85;102390.28;5202772;28;20439;-38
2022/08/29 09:34:14;;;;;;;9.63;2.75;;;;;;;20.68;50.10;102386.25;5201719;28;20052;-38
2022/08/29 09:36:50;;;;;;;7.38;2.33;;;;;;;20.51;50.26;102384.69;5204949;28;20376;-34
2022/08/29 09:39:26;;;;;;;9.18;2.25;;;;;;;20.64;50.25;102384.94;5203392;28;20408;-40
2022/08/29 09:42:18;;;;;;;7.22;3.08;;;;;;;20.73;50.07;102394.63;5208157;28;20500;-38
2022/08/29 09:44:55;;;;;;;5.93;2.75;;;;;;;20.78;50.09;102395.91;5198474;28;20048;-40
2022/08/29 09:47:31;;;;;;;8.52;3.78;;;;;;;20.72;49.97;102397.50;5200742;28;20071;-40
2022/08/29 09:50:11;;;;;;;10.25;3.22;;;;;;;20.60;50.24;102388.19;5201413;28;20472;-40
2022/08/29 09:52:53;;;;;;;8.32;2.33;;;;;;;20.51;50.41;102392.72;5199163;28;20045;-39
2022/08/29 09:55:33;;;;;;;4.57;2.38;;;;;;;20.48;50.41;102395.78;5197262;28;20057;-40
2022/08/29 09:58:26;;;;;;;7.85;2.22;;;;;;;20.34;50.56;102394.66;5198526;28;20483;-42
2022/08/29 10:01:02;;;;;;;4.80;2.00;;;;;;;20.27;50.73;102397.22;5198115;28;20045;-40
2022/08/29 10:03:38;;;;;;;5.05;2.20;;;;;;;20.06;51.09;102385.44;5188956;28;20037;-44
2022/08/29 10:06:16;;;;;;;10.77;2.58;;;;;;;19.97;51.46;102401.53;5199985;28;20064;-39
2022/08/29 10:08:59;;;;;;;8.38;2.97;;;;;;;19.91;51.93;102409.44;5200512;28;20389;-42
2022/08/29 10:11:42;;;;;;;5.95;2.53;;;;;;;19.73;52.15;102397.13;5194050;28;20067;-43
2022/08/29 10:14:34;;;;;;;5.30;2.53;;;;;;;19.58;52.64;102409.53;5194890;28;20032;-45
2022/08/29 10:20:10;;;;;;;3.15;1.90;;;;;;;19.51;52.72;102419.25;5186063;28;20067;-42
2022/08/29 10:22:47;;;;;;;7.80;2.67;;;;;;;19.38;52.68;102397.50;5199091;28;20044;-40
2022/08/29 10:25:32;;;;;;;7.30;2.65;;;;;;;19.31;52.81;102389.31;5199121;28;20534;-38
2022/08/29 10:28:15;;;;;;;8.45;3.20;;;;;;;19.46;52.60;102402.84;5194308;28;20040;-40
2022/08/29 10:30:59;;;;;;;4.95;3.17;;;;;;;19.50;52.64;102402.34;5200413;28;20404;-40
2022/08/29 10:33:55;;;;;;;11.65;2.55;;;;;;;19.41;52.89;102398.00;5199052;28;20056;-43
2022/08/29 10:36:33;;;;;;;9.02;3.13;;;;;;;19.54;52.73;102408.19;5199523;28;20036;-40
2022/08/29 10:39:15;;;;;;;5.72;2.97;;;;;;;19.63;52.38;102395.59;5195830;28;20114;-41
2022/08/29 10:41:59;;;;;;;8.80;2.75;;;;;;;19.79;52.22;102401.81;5201933;28;20041;-42
2022/08/29 10:44:42;;;;;;;5.65;3.53;;;;;;;19.86;52.07;102406.47;5199395;28;20044;-45
2022/08/29 10:47:40;;;;;;;5.45;2.30;;;;;;;20.03;51.92;102397.34;5200527;28;20125;-43
2022/08/29 10:50:28;;;;;;;8.57;2.50;;;;;;;20.21;51.66;102395.25;5172058;28;20381;-45
2022/08/29 10:53:07;;;;;;;9.15;2.67;;;;;;;20.53;51.36;102388.03;5200702;28;20409;-42
2022/08/29 10:55:52;;;;;;;5.75;2.10;;;;;;;20.79;51.13;102397.59;5194049;28;20041;-46
2022/08/29 10:58:40;;;;;;;4.90;2.25;;;;;;;21.15;50.39;102398.66;5188444;28;20445;-45
2022/08/29 11:01:19;;;;;;;5.88;2.00;;;;;;;21.62;49.86;102392.16;5178702;28;20482;-47
2022/08/29 11:04:15;;;;;;;9.43;2.70;;;;;;;21.84;49.37;102373.41;5174380;28;20128;-46
2022/08/29 11:07:01;;;;;;;3.47;1.85;;;;;;;22.25;48.75;102395.25;5178782;28;20529;-41
2022/08/29 11:09:39;;;;;;;12.80;2.55;;;;;;;22.45;48.13;102382.03;5183264;28;20117;-40
2022/08/29 11:12:17;;;;;;;5.07;2.00;;;;;;;22.46;48.00;102381.00;5179034;28;20155;-36
2022/08/29 11:14:56;;;;;;;5.32;2.30;;;;;;;22.42;47.92;102373.47;5178695;28;20138;-41
2022/08/29 11:17:34;;;;;;;5.70;2.40;;;;;;;22.47;47.99;102371.88;5181189;28;20365;-40
2022/08/29 11:20:16;;;;;;;9.52;2.10;;;;;;;22.47;47.96;102355.72;5176686;28;20037;-44
2022/08/29 11:22:56;;;;;;;10.20;2.35;;;;;;;22.56;47.79;102364.53;5181337;28;20083;-42
2022/08/29 11:25:31;;;;;;;4.50;2.55;;;;;;;22.58;47.73;102372.41;5180709;28;20053;-40
2022/08/29 11:28:14;;;;;;;7.43;2.58;;;;;;;22.58;47.51;102356.25;5184240;28;20124;-39
2022/08/29 11:30:50;;;;;;;;;;;;;;;22.65;47.61;102365.25;5180257;28;20103;-44
2022/08/29 11:33:35;;;;;;;7.15;2.35;;;;;;;22.58;47.57;102358.94;5182897;28;20391;-37
2022/08/29 11:36:32;;;;;;;5.20;2.00;;;;;;;22.77;47.52;102361.00;5180868;28;20392;-41
2022/08/29 11:39:41;;;;;;;6.97;2.33;;;;;;;22.92;47.17;102353.66;5176740;28;20506;-34
2022/08/29 11:42:15;;;;;;;7.05;2.35;;;;;;;23.07;46.54;102350.88;5178724;28;20640;-44
2022/08/29 11:44:52;;;;;;;6.38;2.53;;;;;;;22.86;46.71;102348.22;5181828;28;20048;-42
2022/08/29 11:47:38;;;;;;;5.43;2.38;;;;;;;22.85;46.88;102355.44;5181185;28;20435;-43
2022/08/29 11:50:22;;;;;;;6.65;2.47;;;;;;;22.92;47.08;102356.38;5177068;28;20037;-41
2022/08/29 11:53:09;;;;;;;6.40;2.85;;;;;;;23.05;46.86;102352.13;5179956;28;20049;-44
2022/08/29 11:55:43;;;;;;;5.18;2.40;;;;;;;23.04;46.74;102355.84;5177200;28;20480;-42
2022/08/29 11:58:43;;;;;;;8.13;2.25;;;;;;;23.15;46.64;102358.00;5178392;28;20374;-46
2022/08/29 12:02:02;;;;;;;4.85;2.45;;;;;;;23.18;46.59;102353.06;5200064;28;20068;-41
2022/08/29 12:04:55;;;;;;;5.78;2.67;;;;;;;23.12;46.70;102348.44;5195038;28;20045;-37
2022/08/29 12:07:36;;;;;;;8.60;2.42;;;;;;;22.99;46.84;102338.41;5203429;28;20052;-40
2022/08/29 12:10:24;;;;;;;5.22;2.40;;;;;;;23.02;46.65;102348.78;5200762;28;20056;-39
2022/08/29 12:12:59;;;;;;;3.97;2.50;;;;;;;23.19;46.55;102348.50;5203234;28;20059;-39
2022/08/29 12:15:53;;;;;;;4.10;2.10;;;;;;;23.35;46.16;102345.50;5200347;28;21106;-43
2022/08/29 12:18:43;;;;;;;4.55;2.30;;;;;;;23.55;45.90;102342.09;5199898;28;20477;-44
2022/08/29 12:21:49;;;;;;;6.50;2.30;;;;;;;23.81;45.78;102347.63;5199366;28;20135;-41